createdAt,value
2022-09-07T00:01:25.363Z,81.44
2022-09-07T00:03:28.959Z,80.66
2022-09-07T00:05:34.373Z,81.10
2022-09-07T00:07:37.836Z,81.07
2022-09-07T00:09:41.292Z,80.30
2022-09-07T00:11:45.410Z,79.91
2022-09-07T00:13:50.353Z,80.46
2022-09-07T00:15:54.345Z,81.02
2022-09-07T00:17:57.890Z,82.72
2022-09-07T00:20:01.378Z,82.36
2022-09-07T00:22:06.279Z,80.14
2022-09-07T00:24:09.869Z,81.11
2022-09-07T00:26:15.080Z,81.88
2022-09-07T00:28:18.729Z,83.57
2022-09-07T00:30:22.194Z,82.85
2022-09-07T00:32:26.179Z,82.30
2022-09-07T00:34:29.696Z,81.87
2022-09-07T00:36:33.166Z,80.88
2022-09-07T00:38:38.784Z,79.07
2022-09-07T00:40:42.395Z,80.04
2022-09-07T00:42:45.872Z,81.53
2022-09-07T00:45:13.251Z,83.35
2022-09-07T00:47:22.387Z,83.43
2022-09-07T00:49:26.101Z,82.44
2022-09-07T00:51:33.637Z,81.46
2022-09-07T00:53:43.817Z,80.56
2022-09-07T00:55:50.478Z,80.08
2022-09-07T00:57:56.586Z,79.26
2022-09-07T01:00:00.572Z,79.92
2022-09-07T01:02:04.963Z,80.52
2022-09-07T01:04:09.573Z,81.33
2022-09-07T01:06:17.276Z,81.37
2022-09-07T01:08:21.094Z,82.62
2022-09-07T01:10:30.642Z,82.99
2022-09-07T01:12:34.093Z,82.94
2022-09-07T01:14:44.645Z,82.93
2022-09-07T01:17:00.668Z,83.19
2022-09-07T01:19:19.054Z,84.46
2022-09-07T01:21:26.828Z,84.88
2022-09-07T01:24:14.326Z,84.69
2022-09-07T01:26:45.721Z,84.89
2022-09-07T01:28:59.710Z,85.57
2022-09-07T01:31:15.342Z,85.82
2022-09-07T01:33:31.144Z,86.13
2022-09-07T01:35:43.483Z,86.69
2022-09-07T01:37:57.605Z,86.57
2022-09-07T01:40:09.000Z,87.03
2022-09-07T01:42:16.016Z,87.36
2022-09-07T01:44:24.629Z,87.38
2022-09-07T01:46:30.206Z,87.66
2022-09-07T01:48:39.075Z,88.61
2022-09-07T01:50:47.754Z,88.50
2022-09-07T01:52:55.393Z,87.73
2022-09-07T01:55:04.648Z,88.09
2022-09-07T01:57:14.472Z,85.06
2022-09-07T01:59:25.515Z,85.47
2022-09-07T02:01:37.683Z,85.25
2022-09-07T02:03:46.158Z,84.85
2022-09-07T02:05:58.442Z,85.60
2022-09-07T02:08:07.701Z,84.31
2022-09-07T02:10:16.805Z,84.91
2022-09-07T02:12:25.668Z,84.70
2022-09-07T02:14:37.852Z,84.91
2022-09-07T02:16:46.290Z,84.64
2022-09-07T02:18:54.257Z,84.79
2022-09-07T02:20:59.399Z,84.90
2022-09-07T02:23:07.070Z,84.46
2022-09-07T02:25:14.257Z,85.21
2022-09-07T02:27:22.739Z,85.59
2022-09-07T02:29:30.799Z,84.56
2022-09-07T02:31:36.048Z,84.64
2022-09-07T02:33:40.262Z,85.17
2022-09-07T02:35:43.768Z,84.68
2022-09-07T02:37:49.671Z,84.67
2022-09-07T02:39:53.240Z,84.31
2022-09-07T02:41:56.750Z,84.58
2022-09-07T02:44:01.442Z,85.14
2022-09-07T02:46:19.766Z,84.63
2022-09-07T02:48:32.286Z,83.49
2022-09-07T02:50:47.828Z,83.77
2022-09-07T02:53:05.381Z,85.15
2022-09-07T02:55:18.799Z,85.16
2022-09-07T02:57:33.263Z,85.43
2022-09-07T02:59:50.282Z,84.73
2022-09-07T03:02:02.091Z,85.02
2022-09-07T03:04:15.268Z,84.27
2022-09-07T03:06:25.212Z,84.34
2022-09-07T03:08:33.381Z,83.55
2022-09-07T03:10:39.947Z,84.43
2022-09-07T03:12:46.023Z,84.55
2022-09-07T03:14:49.637Z,84.31
2022-09-07T03:16:56.883Z,84.24
2022-09-07T03:19:00.353Z,83.68
2022-09-07T03:21:05.331Z,84.07
2022-09-07T03:23:08.789Z,84.37
2022-09-07T03:25:12.839Z,84.23
2022-09-07T03:27:16.316Z,84.48
2022-09-07T03:29:20.254Z,85.06
2022-09-07T03:31:23.763Z,84.44
2022-09-07T03:33:27.340Z,84.54
2022-09-07T03:35:30.851Z,84.44
2022-09-07T03:37:36.660Z,85.45
2022-09-07T03:39:40.114Z,84.78
2022-09-07T03:41:43.563Z,85.12
2022-09-07T03:43:47.062Z,85.17
2022-09-07T03:45:50.595Z,85.41
2022-09-07T03:47:54.204Z,85.59
2022-09-07T03:49:57.747Z,84.46
2022-09-07T03:52:01.639Z,84.58
2022-09-07T03:54:06.740Z,85.02
2022-09-07T03:56:12.464Z,85.66
2022-09-07T03:58:16.056Z,85.94
2022-09-07T04:00:19.686Z,85.21
2022-09-07T04:02:23.135Z,85.25
2022-09-07T04:04:26.727Z,84.18
2022-09-07T04:06:30.893Z,84.48
2022-09-07T04:08:36.574Z,84.10
2022-09-07T04:10:42.005Z,83.51
2022-09-07T04:12:45.543Z,83.94
2022-09-07T04:14:50.232Z,84.78
2022-09-07T04:16:53.895Z,84.44
2022-09-07T04:19:01.107Z,84.03
2022-09-07T04:21:11.830Z,84.23
2022-09-07T04:23:15.338Z,83.68
2022-09-07T04:25:20.082Z,84.31
2022-09-07T04:27:24.929Z,84.75
2022-09-07T04:29:28.426Z,85.12
2022-09-07T04:31:33.749Z,84.72
2022-09-07T04:33:37.697Z,85.20
2022-09-07T04:35:43.968Z,85.28
2022-09-07T04:37:47.732Z,85.33
2022-09-07T04:39:51.811Z,84.42
2022-09-07T04:41:56.738Z,84.78
2022-09-07T04:44:03.338Z,84.37
2022-09-07T04:46:08.391Z,85.25
2022-09-07T04:48:12.198Z,85.27
2022-09-07T04:50:16.864Z,85.52
2022-09-07T04:52:20.467Z,85.58
2022-09-07T04:54:24.066Z,86.47
2022-09-07T04:56:27.942Z,86.90
2022-09-07T04:58:32.036Z,87.61
2022-09-07T05:00:37.719Z,87.09
2022-09-07T05:02:41.354Z,87.40
2022-09-07T05:04:44.849Z,88.00
2022-09-07T05:06:48.359Z,88.53
2022-09-07T05:08:53.526Z,88.49
2022-09-07T05:10:57.621Z,87.94
2022-09-07T05:13:01.640Z,88.23
2022-09-07T05:15:06.391Z,87.73
2022-09-07T05:17:11.716Z,87.09
2022-09-07T05:19:15.750Z,86.77
2022-09-07T05:21:21.327Z,86.34
2022-09-07T05:23:25.117Z,85.77
2022-09-07T05:25:29.818Z,85.47
2022-09-07T05:27:33.469Z,84.70
2022-09-07T05:32:00.931Z,83.39
2022-09-07T05:36:30.248Z,83.56
2022-09-07T05:38:36.788Z,84.10
2022-09-07T05:40:41.017Z,84.99
2022-09-07T05:42:44.583Z,84.80
2022-09-07T05:44:48.362Z,84.32
2022-09-07T05:46:52.752Z,84.51
2022-09-07T05:48:56.541Z,84.55
2022-09-07T05:51:01.687Z,84.98
2022-09-07T05:53:05.255Z,85.99
2022-09-07T05:55:28.903Z,86.25
2022-09-07T05:57:33.258Z,86.43
2022-09-07T05:59:36.725Z,86.15
2022-09-07T06:01:40.350Z,86.93
2022-09-07T06:03:44.464Z,87.94
2022-09-07T06:05:47.970Z,87.04
2022-09-07T06:07:53.113Z,88.39
2022-09-07T06:12:20.232Z,88.70
2022-09-07T06:14:23.668Z,89.08
2022-09-07T06:16:27.288Z,89.60
2022-09-07T06:18:31.575Z,89.52
2022-09-07T06:20:35.098Z,89.70
2022-09-07T06:22:39.347Z,90.21
2022-09-07T06:24:44.173Z,90.96
2022-09-07T06:26:47.605Z,90.39
2022-09-07T06:28:54.757Z,91.16
2022-09-07T06:31:01.537Z,91.13
2022-09-07T06:33:05.047Z,91.35
2022-09-07T06:35:09.760Z,91.86
2022-09-07T06:37:13.454Z,91.20
2022-09-07T06:39:17.189Z,90.95
2022-09-07T06:43:47.700Z,92.12
2022-09-07T06:45:55.207Z,92.36
2022-09-07T06:47:59.000Z,91.52
2022-09-07T06:50:02.502Z,91.15
2022-09-07T06:52:05.975Z,91.31
2022-09-07T06:56:36.216Z,92.20
2022-09-07T06:58:42.430Z,90.46
2022-09-07T07:00:46.609Z,90.53
2022-09-07T07:02:50.193Z,90.94
2022-09-07T07:04:53.721Z,90.41
2022-09-07T07:06:57.366Z,90.16
2022-09-07T07:09:00.804Z,90.09
2022-09-07T07:11:06.544Z,90.48
2022-09-07T07:13:11.685Z,89.68
2022-09-07T07:15:15.139Z,89.21
2022-09-07T07:17:18.660Z,88.93
2022-09-07T07:19:22.250Z,88.96
2022-09-07T07:21:26.018Z,87.82
2022-09-07T07:23:29.638Z,88.22
2022-09-07T07:25:35.123Z,88.15
2022-09-07T07:27:39.024Z,87.43
2022-09-07T07:29:44.002Z,88.37
2022-09-07T07:31:47.819Z,88.44
2022-09-07T07:33:53.017Z,85.56
2022-09-07T07:35:56.755Z,85.35
2022-09-07T07:40:27.671Z,82.69
2022-09-07T07:42:35.505Z,82.89
2022-09-07T07:44:39.281Z,82.39
2022-09-07T07:46:44.529Z,81.88
2022-09-07T07:48:49.418Z,80.21
2022-09-07T07:50:58.613Z,79.04
2022-09-07T07:57:49.020Z,78.83
2022-09-07T07:59:52.455Z,78.63
2022-09-07T08:01:57.462Z,78.02
2022-09-07T08:04:01.075Z,76.55
2022-09-07T08:06:09.021Z,77.20
2022-09-07T08:08:12.566Z,76.89
2022-09-07T08:10:16.002Z,76.37
2022-09-07T08:12:21.183Z,77.01
2022-09-07T08:14:24.743Z,77.01
2022-09-07T08:16:28.217Z,76.56
2022-09-07T08:18:36.032Z,75.56
2022-09-07T08:20:39.612Z,74.94
2022-09-07T08:22:43.054Z,76.08
2022-09-07T08:24:46.386Z,75.75
2022-09-07T08:26:49.934Z,75.16
2022-09-07T08:28:53.282Z,74.71
2022-09-07T08:30:57.906Z,75.42
2022-09-07T08:35:06.961Z,74.38
2022-09-07T08:37:10.818Z,74.93
2022-09-07T08:39:14.440Z,73.96
2022-09-07T08:41:43.365Z,73.94
2022-09-07T08:43:51.536Z,73.61
2022-09-07T08:45:58.710Z,74.32
2022-09-07T08:48:04.711Z,75.41
2022-09-07T08:50:16.232Z,75.00
2022-09-07T08:52:24.700Z,74.18
2022-09-07T08:54:29.014Z,74.23
2022-09-07T08:56:36.978Z,74.15
2022-09-07T08:58:49.096Z,74.05
2022-09-07T09:01:30.631Z,75.39
2022-09-07T09:03:30.165Z,73.35
2022-09-07T09:05:41.233Z,74.14
2022-09-07T09:07:54.562Z,73.78
2022-09-07T09:10:17.646Z,72.57
2022-09-07T09:12:37.556Z,72.06
2022-09-07T09:14:57.224Z,71.76
2022-09-07T09:17:08.577Z,70.97
2022-09-07T09:19:39.438Z,70.79
2022-09-07T09:21:44.612Z,71.49
2022-09-07T09:23:52.468Z,70.33
2022-09-07T09:25:57.691Z,71.34
2022-09-07T09:28:01.542Z,70.82
2022-09-07T09:30:14.065Z,70.37
2022-09-07T09:32:39.788Z,69.38
2022-09-07T09:35:02.179Z,69.52
2022-09-07T09:37:07.058Z,68.15
2022-09-07T09:39:29.860Z,68.49
2022-09-07T09:41:38.103Z,68.03
2022-09-07T09:43:45.732Z,67.54
2022-09-07T09:48:21.021Z,67.06
2022-09-07T09:52:53.979Z,66.74
2022-09-07T09:55:11.826Z,67.15
2022-09-07T09:59:04.771Z,66.44
2022-09-07T10:00:27.904Z,66.37
2022-09-07T10:04:58.110Z,64.82
2022-09-07T10:07:09.626Z,65.25
2022-09-07T10:09:20.955Z,64.21
2022-09-07T10:14:19.976Z,64.12
2022-09-07T10:16:38.423Z,64.06
2022-09-07T10:18:54.553Z,63.95
2022-09-07T10:21:14.706Z,63.93
2022-09-07T10:23:23.471Z,63.90
2022-09-07T10:25:33.509Z,62.55
2022-09-07T10:27:38.659Z,62.54
2022-09-07T10:29:42.351Z,62.70
2022-09-07T10:32:03.054Z,60.19
2022-09-07T10:34:31.031Z,60.35
2022-09-07T10:36:44.928Z,59.53
2022-09-07T10:38:54.755Z,59.43
2022-09-07T10:41:04.091Z,58.69
2022-09-07T10:43:21.453Z,58.59
2022-09-07T10:45:33.359Z,56.59
2022-09-07T10:47:47.883Z,56.13
2022-09-07T10:52:26.643Z,56.89
2022-09-07T10:54:39.713Z,57.87
2022-09-07T10:56:59.227Z,56.67
2022-09-07T10:59:14.100Z,56.38
2022-09-07T11:01:28.627Z,56.57
2022-09-07T11:03:50.751Z,55.16
2022-09-07T11:06:06.646Z,55.10
2022-09-07T11:08:24.469Z,54.90
2022-09-07T11:10:38.436Z,54.84
2022-09-07T11:12:46.807Z,54.65
2022-09-07T11:14:55.025Z,55.56
2022-09-07T11:17:02.425Z,56.01
2022-09-07T11:24:10.212Z,58.20
2022-09-07T11:26:18.628Z,58.81
2022-09-07T11:28:27.556Z,59.19
2022-09-07T11:30:35.587Z,59.70
2022-09-07T11:32:47.152Z,60.84
2022-09-07T11:34:54.526Z,61.34
2022-09-07T11:37:01.990Z,61.35
2022-09-07T11:39:08.519Z,59.43
2022-09-07T11:41:24.096Z,60.65
2022-09-07T11:43:32.641Z,60.00
2022-09-07T11:45:41.847Z,59.30
2022-09-07T11:47:50.035Z,58.92
2022-09-07T11:49:59.011Z,57.12
2022-09-07T11:52:06.527Z,58.37
2022-09-07T11:54:33.279Z,57.44
2022-09-07T11:56:45.797Z,57.65
2022-09-07T11:59:25.523Z,57.42
2022-09-07T12:01:39.225Z,57.63
2022-09-07T12:04:14.742Z,58.19
2022-09-07T12:06:48.075Z,58.32
2022-09-07T12:09:10.391Z,59.10
2022-09-07T12:11:30.997Z,58.98
2022-09-07T12:13:58.029Z,58.83
2022-09-07T12:16:07.092Z,58.61
2022-09-07T12:18:25.476Z,57.48
2022-09-07T12:20:39.226Z,56.22
2022-09-07T12:23:05.390Z,55.60
2022-09-07T12:25:09.915Z,56.72
2022-09-07T12:27:38.738Z,55.15
2022-09-07T12:29:45.547Z,55.35
2022-09-07T12:32:07.375Z,55.30
2022-09-07T12:34:51.698Z,55.60
2022-09-07T12:36:55.206Z,54.86
2022-09-07T12:39:18.526Z,54.53
2022-09-07T12:41:24.356Z,53.66
2022-09-07T12:44:08.132Z,54.07
2022-09-07T12:46:20.469Z,54.61
2022-09-07T12:48:38.323Z,54.73
2022-09-07T12:50:45.470Z,53.80
2022-09-07T12:52:54.767Z,54.05
2022-09-07T12:55:27.469Z,54.17
2022-09-07T12:57:41.577Z,51.59
2022-09-07T12:59:59.072Z,50.07
2022-09-07T13:02:18.135Z,50.75
2022-09-07T13:04:53.073Z,50.21
2022-09-07T13:07:38.590Z,49.74
2022-09-07T13:09:42.641Z,47.97
2022-09-07T13:11:46.398Z,48.37
2022-09-07T13:14:08.758Z,47.70
2022-09-07T13:16:29.505Z,47.65
2022-09-07T13:18:43.011Z,46.90
2022-09-07T13:21:25.776Z,46.55
2022-09-07T13:23:29.169Z,47.00
2022-09-07T13:26:01.315Z,46.90
2022-09-07T13:28:06.097Z,46.77
2022-09-07T13:30:24.736Z,46.53
2022-09-07T13:35:06.638Z,46.76
2022-09-07T13:37:19.219Z,45.93
2022-09-07T13:39:23.071Z,45.88
2022-09-07T13:41:30.385Z,45.39
2022-09-07T13:43:35.764Z,45.99
2022-09-07T13:46:01.283Z,44.64
2022-09-07T13:48:15.784Z,44.53
2022-09-07T13:50:30.035Z,43.96
2022-09-07T13:52:50.973Z,43.22
2022-09-07T13:55:23.854Z,41.77
2022-09-07T13:57:32.534Z,42.62
2022-09-07T13:59:36.780Z,43.26
2022-09-07T14:01:46.192Z,43.43
2022-09-07T14:03:53.083Z,42.35
2022-09-07T14:06:27.146Z,43.25
2022-09-07T14:08:34.051Z,43.58
2022-09-07T14:10:49.071Z,43.28
2022-09-07T14:12:54.490Z,43.26
2022-09-07T14:15:09.798Z,44.35
2022-09-07T14:17:16.080Z,43.78
2022-09-07T14:19:25.766Z,43.41
2022-09-07T14:21:29.474Z,43.46
2022-09-07T14:23:35.673Z,43.73
2022-09-07T14:28:03.737Z,42.47
2022-09-07T14:30:17.985Z,42.45
2022-09-07T14:32:27.191Z,43.11
2022-09-07T14:34:34.894Z,43.55
2022-09-07T14:36:45.823Z,43.71
2022-09-07T14:39:07.000Z,43.42
2022-09-07T14:41:12.936Z,43.73
2022-09-07T14:43:31.780Z,42.90
2022-09-07T14:45:37.536Z,42.79
2022-09-07T14:47:42.207Z,43.32
2022-09-07T14:49:51.843Z,43.47
2022-09-07T14:51:56.965Z,42.92
2022-09-07T14:54:03.790Z,43.07
2022-09-07T14:56:10.804Z,43.11
2022-09-07T14:58:23.916Z,42.98
2022-09-07T15:00:32.854Z,42.59
2022-09-07T15:02:37.604Z,43.61
2022-09-07T15:04:41.159Z,44.19
2022-09-07T15:07:02.296Z,44.04
2022-09-07T15:09:07.856Z,43.79
2022-09-07T15:13:41.539Z,44.23
2022-09-07T15:15:46.752Z,43.84
2022-09-07T15:17:50.377Z,43.94
2022-09-07T15:19:53.875Z,43.41
2022-09-07T15:21:57.208Z,44.06
2022-09-07T15:24:01.632Z,44.58
2022-09-07T15:26:06.839Z,44.43
2022-09-07T15:31:40.337Z,44.60
2022-09-07T15:33:11.490Z,44.50
2022-09-07T15:35:15.949Z,44.33
2022-09-07T15:39:43.772Z,43.05
2022-09-07T15:41:49.161Z,42.92
2022-09-07T15:43:52.432Z,42.79
2022-09-07T15:45:55.879Z,42.81
2022-09-07T15:47:59.322Z,42.61
2022-09-07T15:50:03.351Z,41.70
2022-09-07T15:52:07.097Z,42.45
2022-09-07T15:54:13.148Z,42.04
2022-09-07T15:56:20.370Z,41.42
2022-09-07T15:58:25.404Z,41.52
2022-09-07T16:00:28.772Z,42.78
2022-09-07T16:04:55.490Z,42.59
2022-09-07T16:07:01.660Z,42.23
2022-09-07T16:09:06.170Z,41.93
2022-09-07T16:11:18.695Z,41.74
2022-09-07T16:13:24.012Z,42.06
2022-09-07T16:15:29.045Z,42.14
2022-09-07T16:17:36.984Z,42.71
2022-09-07T16:19:44.924Z,42.95
2022-09-07T16:21:48.245Z,43.03
2022-09-07T16:23:54.126Z,43.07
2022-09-07T16:25:58.401Z,43.20
2022-09-07T16:28:01.788Z,43.97
2022-09-07T16:30:05.954Z,43.98
2022-09-07T16:34:34.456Z,43.52
2022-09-07T16:36:37.804Z,43.85
2022-09-07T16:38:45.646Z,43.34
2022-09-07T16:40:49.971Z,43.80
2022-09-07T16:42:53.345Z,43.04
2022-09-07T16:46:02.608Z,43.34
2022-09-07T16:47:21.609Z,43.52
2022-09-07T16:49:25.295Z,42.91
2022-09-07T16:51:29.053Z,43.17
2022-09-07T16:53:34.731Z,42.81
2022-09-07T16:55:38.041Z,42.75
2022-09-07T17:00:08.285Z,43.63
2022-09-07T17:02:17.259Z,44.00
2022-09-07T17:04:22.232Z,43.82
2022-09-07T17:06:27.841Z,43.50
2022-09-07T17:08:31.315Z,43.62
2022-09-07T17:10:34.793Z,43.87
2022-09-07T17:12:38.683Z,43.49
2022-09-07T17:14:42.105Z,43.87
2022-09-07T17:16:45.600Z,44.09
2022-09-07T17:21:14.620Z,45.36
2022-09-07T17:23:17.886Z,44.68
2022-09-07T17:25:21.622Z,45.22
2022-09-07T17:27:27.286Z,45.28
2022-09-07T17:29:37.341Z,45.59
2022-09-07T17:34:05.708Z,46.50
2022-09-07T17:36:11.093Z,46.19
2022-09-07T17:40:41.962Z,47.42
2022-09-07T17:45:09.699Z,47.05
2022-09-07T17:47:14.663Z,47.45
2022-09-07T17:49:18.228Z,47.57
2022-09-07T17:51:23.262Z,48.02
2022-09-07T17:53:28.143Z,47.43
2022-09-07T17:55:32.710Z,48.17
2022-09-07T17:57:36.049Z,49.04
2022-09-07T18:02:14.487Z,48.98
2022-09-07T18:04:17.873Z,49.21
2022-09-07T18:06:21.979Z,49.67
2022-09-07T18:08:25.892Z,49.17
2022-09-07T18:11:45.095Z,50.17
2022-09-07T18:12:55.020Z,50.10
2022-09-07T18:14:58.416Z,49.82
2022-09-07T18:17:01.759Z,50.20
2022-09-07T18:19:07.398Z,50.36
2022-09-07T18:21:16.151Z,50.72
2022-09-07T18:23:19.529Z,51.99
2022-09-07T18:25:22.822Z,52.25
2022-09-07T18:27:27.489Z,52.22
2022-09-07T18:29:33.921Z,52.59
2022-09-07T18:31:37.736Z,52.64
2022-09-07T18:33:41.544Z,52.72
2022-09-07T18:35:46.663Z,53.17
2022-09-07T18:37:50.836Z,53.60
2022-09-07T18:39:54.610Z,53.91
2022-09-07T18:41:58.281Z,54.38
2022-09-07T18:44:03.821Z,54.58
2022-09-07T18:46:09.548Z,55.27
2022-09-07T18:48:13.386Z,56.06
2022-09-07T18:50:17.612Z,55.71
2022-09-07T18:54:45.643Z,55.12
2022-09-07T18:56:48.955Z,55.79
2022-09-07T18:58:56.700Z,55.20
2022-09-07T19:01:05.980Z,55.37
2022-09-07T19:03:09.744Z,55.88
2022-09-07T19:07:36.369Z,55.56
2022-09-07T19:09:39.766Z,55.71
2022-09-07T19:11:43.639Z,55.84
2022-09-07T19:13:47.179Z,56.15
2022-09-07T19:15:50.565Z,56.88
2022-09-07T19:17:55.247Z,56.70
2022-09-07T19:19:58.520Z,57.69
2022-09-07T19:22:03.151Z,57.31
2022-09-07T19:24:08.262Z,58.08
2022-09-07T19:26:11.644Z,57.96
2022-09-07T19:28:15.112Z,58.15
2022-09-07T19:30:18.596Z,58.30
2022-09-07T19:32:21.908Z,58.77
2022-09-07T19:34:26.666Z,58.37
2022-09-07T19:36:31.788Z,59.32
2022-09-07T19:38:35.245Z,59.46
2022-09-07T19:40:38.550Z,59.13
2022-09-07T19:42:41.947Z,58.93
2022-09-07T19:44:45.250Z,59.41
2022-09-07T19:46:48.739Z,58.57
2022-09-07T19:48:52.150Z,59.72
2022-09-07T19:51:01.946Z,61.05
2022-09-07T19:53:05.215Z,62.20
2022-09-07T19:55:09.640Z,63.13
2022-09-07T19:57:13.037Z,63.95
2022-09-07T19:59:19.093Z,63.60
2022-09-07T20:01:24.888Z,63.05
2022-09-07T20:03:28.484Z,62.43
2022-09-07T20:05:32.075Z,61.82
2022-09-07T20:07:36.919Z,61.80
2022-09-07T20:09:40.247Z,61.42
2022-09-07T20:11:46.812Z,61.43
2022-09-07T20:13:50.378Z,61.03
2022-09-07T20:15:53.686Z,60.84
2022-09-07T20:17:57.113Z,60.84
2022-09-07T20:20:00.645Z,60.91
2022-09-07T20:22:04.005Z,60.95
2022-09-07T20:24:08.640Z,60.98
2022-09-07T20:26:14.044Z,60.21
2022-09-07T20:28:17.446Z,62.01
2022-09-07T20:30:24.203Z,62.61
2022-09-07T20:32:28.325Z,64.11
2022-09-07T20:34:32.110Z,65.14
2022-09-07T20:36:35.865Z,65.41
2022-09-07T20:38:40.323Z,66.69
2022-09-07T20:40:53.209Z,65.70
2022-09-07T20:42:56.714Z,65.24
2022-09-07T20:45:00.051Z,64.33
2022-09-07T20:47:03.568Z,63.05
2022-09-07T20:49:07.398Z,64.22
2022-09-07T20:51:14.719Z,63.99
2022-09-07T20:53:20.219Z,63.86
2022-09-07T20:55:24.572Z,63.36
2022-09-07T20:57:29.545Z,63.42
2022-09-07T20:59:32.928Z,63.91
2022-09-07T21:01:36.611Z,63.76
2022-09-07T21:03:40.591Z,63.58
2022-09-07T21:05:43.873Z,62.89
2022-09-07T21:07:47.156Z,63.61
2022-09-07T21:09:50.828Z,63.50
2022-09-07T21:11:57.165Z,63.31
2022-09-07T21:14:05.992Z,62.98
2022-09-07T21:16:11.191Z,62.80
2022-09-07T21:18:16.789Z,62.83
2022-09-07T21:20:20.148Z,62.72
2022-09-07T21:22:23.404Z,62.84
2022-09-07T21:24:26.816Z,62.80
2022-09-07T21:26:30.737Z,62.89
2022-09-07T21:28:34.083Z,62.53
2022-09-07T21:30:38.827Z,63.50
2022-09-07T21:32:42.188Z,63.13
2022-09-07T21:34:45.777Z,62.86
2022-09-07T21:36:49.379Z,62.60
2022-09-07T21:38:53.338Z,62.27
2022-09-07T21:40:56.585Z,62.74
2022-09-07T21:42:59.969Z,62.67
2022-09-07T21:45:03.297Z,62.57
2022-09-07T21:47:08.218Z,63.03
2022-09-07T21:49:11.808Z,62.21
2022-09-07T21:51:15.719Z,62.48
2022-09-07T21:53:19.280Z,62.54
2022-09-07T21:55:22.606Z,62.06
2022-09-07T21:57:25.909Z,62.84
2022-09-07T21:59:29.656Z,62.87
2022-09-07T22:01:33.251Z,63.36
2022-09-07T22:03:37.996Z,63.83
2022-09-07T22:05:41.255Z,63.53
2022-09-07T22:07:44.588Z,64.39
2022-09-07T22:09:47.889Z,64.70
2022-09-07T22:11:52.336Z,64.74
2022-09-07T22:13:56.573Z,64.44
2022-09-07T22:16:00.009Z,64.84
2022-09-07T22:18:03.295Z,64.56
2022-09-07T22:20:09.389Z,63.16
2022-09-07T22:22:13.203Z,63.59
2022-09-07T22:24:17.716Z,63.99
2022-09-07T22:26:22.918Z,65.13
2022-09-07T22:28:26.869Z,65.50
2022-09-07T22:30:30.176Z,65.76
2022-09-07T22:32:35.564Z,66.31
2022-09-07T22:34:38.855Z,66.21
2022-09-07T22:36:44.827Z,65.56
2022-09-07T22:38:50.744Z,65.70
2022-09-07T22:40:54.080Z,65.69
2022-09-07T22:42:57.437Z,65.99
2022-09-07T22:45:00.834Z,65.47
2022-09-07T22:47:04.173Z,66.33
2022-09-07T22:49:08.913Z,65.88
2022-09-07T22:51:13.472Z,65.96
2022-09-07T22:53:18.122Z,65.56
2022-09-07T22:55:21.418Z,66.08
2022-09-07T22:57:24.768Z,65.97
2022-09-07T22:59:28.684Z,65.44
2022-09-07T23:01:33.449Z,65.33
2022-09-07T23:03:37.087Z,66.23
2022-09-07T23:05:40.691Z,65.49
2022-09-07T23:07:43.956Z,65.41
2022-09-07T23:09:48.679Z,65.29
2022-09-07T23:11:51.981Z,66.12
2022-09-07T23:13:57.067Z,65.89
2022-09-07T23:16:04.689Z,65.41
2022-09-07T23:18:08.672Z,66.08
2022-09-07T23:20:12.018Z,65.64
2022-09-07T23:22:15.702Z,64.65
2022-09-07T23:24:19.711Z,65.43
2022-09-07T23:26:25.943Z,64.77
2022-09-07T23:28:30.015Z,66.46
2022-09-07T23:30:35.414Z,65.38
2022-09-07T23:32:38.855Z,65.24
2022-09-07T23:34:42.437Z,65.59
2022-09-07T23:36:45.820Z,65.77
2022-09-07T23:38:49.510Z,65.62
2022-09-07T23:40:53.107Z,65.38
2022-09-07T23:42:58.106Z,64.96
2022-09-07T23:45:01.490Z,64.83
2022-09-07T23:47:05.080Z,64.27
2022-09-07T23:49:08.549Z,64.45
2022-09-07T23:51:12.817Z,63.93
2022-09-07T23:53:17.949Z,64.29
2022-09-07T23:55:21.281Z,64.59
2022-09-07T23:57:24.813Z,63.84
2022-09-07T23:59:29.570Z,64.02
